Little London, Ohio
Current Conditions -  °F | °C
As of 8:52 AM on Thursday 30 Oct 2014 (Local Time) from KMFD Reporting Station
Clear Clear  
Wind Chill: 34°   Ceiling: Unl
Heat Index: 38°   Visibility: 8mi
Dew Point: 37°   Wind: 5mph
Humidity: 97%   Direction: 270°W
Pressure: 30.13"   Gusts: NA
Location:  40.8848°N, 82.6515°W
Report Text: KMFD 301252Z 27004KT 8SM CLR 03/03 A3013 RMK AO2 SLP210 T00330028
Loading
Personal Weather Stations






























Interactive Weather Map
Tropical Storm Tracking
New forecast layout! Learn more

10-Day Weather Forecast

Advertisements
Track Severe Weather on mobile